Time;durP1;ratioP1;P1;durP2;ratioP2;P2;SDS_P1;SDS_P2;PMS_P1;PMS_P2;Temp;Humidity;BMP_temperature;BMP_pressure;BME280_temperature;BME280_humidity;BME280_pressure;Samples;Min_cycle;Max_cycle;Signal;HPM_P1;HPM_P2
2021/03/08 00:00:08;;;;;;;;;;;;;;;22.41;21.77;98037.47;5062091;28;1960;-75
2021/03/08 00:02:33;;;;;;;;;;;;;;;22.53;21.46;98031.03;5062323;28;950;-76
2021/03/08 00:04:59;;;;;;;;;;;;;;;22.68;21.18;98035.03;5062728;28;840;-75
2021/03/08 00:07:30;;;;;;;;;;;;;;;22.65;21.18;98041.63;5062691;28;634;-75
2021/03/08 00:10:04;;;;;;;;;;;;;;;21.47;22.80;98033.53;5062562;28;710;-75
2021/03/08 00:12:29;;;;;;;;;;;;;;;21.76;22.38;98033.59;5062553;28;634;-76
2021/03/08 00:14:55;;;;;;;;;;;;;;;21.93;22.36;98025.03;5062014;28;1039;-76
2021/03/08 00:17:20;;;;;;;;;;;;;;;22.33;21.72;98034.06;5062349;28;941;-75
2021/03/08 00:19:45;;;;;;;;;;;;;;;22.38;21.64;98029.84;5062139;28;1905;-75
2021/03/08 00:22:11;;;;;;;;;;;;;;;22.52;21.35;98035.09;5062222;28;672;-76
2021/03/08 00:24:36;;;;;;;;;;;;;;;22.60;21.19;98016.66;5062214;28;595;-76
2021/03/08 00:27:02;;;;;;;;;;;;;;;22.47;21.43;98016.59;5062205;28;627;-76
2021/03/08 00:29:27;;;;;;;;;;;;;;;22.54;21.21;98024.13;5061744;28;1045;-75
2021/03/08 00:31:53;;;;;;;;;;;;;;;22.08;21.54;98020.56;5061823;28;956;-75
2021/03/08 00:34:18;;;;;;;;;;;;;;;21.81;22.09;98001.88;5062255;28;912;-76
2021/03/08 00:36:44;;;;;;;;;;;;;;;21.63;22.58;98003.59;5061970;28;619;-76
2021/03/08 00:39:09;;;;;;;;;;;;;;;21.98;22.01;98004.66;5062224;28;1906;-75
2021/03/08 00:41:35;;;;;;;;;;;;;;;22.30;21.61;98010.22;5061862;28;697;-76
2021/03/08 00:44:00;;;;;;;;;;;;;;;22.41;21.29;98009.13;5061799;28;958;-75
2021/03/08 00:46:26;;;;;;;;;;;;;;;22.47;21.27;98001.63;5061793;28;911;-76
2021/03/08 00:48:51;;;;;;;;;;;;;;;22.48;21.37;97992.69;5062031;28;904;-76
2021/03/08 00:51:17;;;;;;;;;;;;;;;22.71;21.08;97985.91;5062044;28;614;-75
2021/03/08 00:53:42;;;;;;;;;;;;;;;21.87;22.15;97987.97;5077455;28;1123;-75
2021/03/08 00:56:08;;;;;;;;;;;;;;;21.67;22.31;97973.94;5077165;28;1020;-75
2021/03/08 00:58:34;;;;;;;;;;;;;;;21.93;22.12;97968.38;5077164;28;1097;-75
2021/03/08 01:00:59;;;;;;;;;;;;;;;22.24;21.74;97961.00;5077007;28;1913;-75
2021/03/08 01:03:25;;;;;;;;;;;;;;;22.46;21.55;97964.00;5077575;28;1131;-76
2021/03/08 01:05:53;;;;;;;;;;;;;;;22.59;21.34;97953.47;5061029;28;1298;-75
2021/03/08 01:08:29;;;;;;;;;;;;;;;22.52;21.55;97958.56;5076840;28;1297;-76
2021/03/08 01:10:55;;;;;;;;;;;;;;;22.16;21.82;97953.97;5061519;28;684;-76
2021/03/08 01:13:25;;;;;;;;;;;;;;;21.90;22.18;97953.06;5061068;28;1034;-75
2021/03/08 01:15:52;;;;;;;;;;;;;;;21.76;22.31;97942.94;5060424;28;872;-75
2021/03/08 01:18:18;;;;;;;;;;;;;;;21.75;22.36;97941.34;5061057;28;881;-75
2021/03/08 01:20:44;;;;;;;;;;;;;;;21.12;22.93;97927.66;5061096;28;1906;-76
2021/03/08 01:23:10;;;;;;;;;;;;;;;21.14;23.40;97930.84;5061158;28;642;-75
2021/03/08 01:25:35;;;;;;;;;;;;;;;20.74;24.12;97924.56;5061034;28;654;-75
2021/03/08 01:28:01;;;;;;;;;;;;;;;21.59;22.75;97924.41;5060620;28;1032;-76
2021/03/08 01:30:27;;;;;;;;;;;;;;;21.68;22.72;97927.41;5060813;28;898;-75
2021/03/08 01:32:53;;;;;;;;;;;;;;;21.43;22.96;97921.63;5060827;28;929;-76
2021/03/08 01:35:18;;;;;;;;;;;;;;;21.35;23.14;97917.38;5060822;28;873;-75
2021/03/08 01:37:59;;;;;;;;;;;;;;;21.37;22.99;97920.56;5060921;28;646;-75
2021/03/08 01:40:25;;;;;;;;;;;;;;;20.63;23.79;97907.88;5059873;28;1898;-75
2021/03/08 01:42:51;;;;;;;;;;;;;;;20.69;24.02;97914.59;5060496;28;910;-75
2021/03/08 01:45:17;;;;;;;;;;;;;;;21.39;23.32;97924.53;5060233;28;885;-75
2021/03/08 01:47:42;;;;;;;;;;;;;;;20.77;23.87;97918.03;5060522;28;982;-75
2021/03/08 01:50:10;;;;;;;;;;;;;;;21.43;23.07;97922.41;5060640;28;651;-76
2021/03/08 01:52:35;;;;;;;;;;;;;;;21.53;22.80;97915.66;5060490;28;642;-76
2021/03/08 01:55:01;;;;;;;;;;;;;;;21.35;23.23;97917.38;5060502;28;653;-75
2021/03/08 01:57:26;;;;;;;;;;;;;;;21.08;23.42;97915.63;5060425;28;1089;-75
2021/03/08 01:59:52;;;;;;;;;;;;;;;20.98;23.40;97911.03;5059170;28;1902;-76
2021/03/08 02:02:17;;;;;;;;;;;;;;;21.45;22.72;97919.13;5060279;28;853;-75
2021/03/08 02:04:43;;;;;;;;;;;;;;;20.35;24.55;97914.16;5060773;28;626;-75
2021/03/08 02:07:09;;;;;;;;;;;;;;;20.71;23.80;97906.44;5060306;28;643;-76
2021/03/08 02:09:34;;;;;;;;;;;;;;;20.70;24.07;97902.03;5060358;28;665;-76
2021/03/08 02:12:09;;;;;;;;;;;;;;;21.59;22.72;97898.91;5043155;28;924;-75
2021/03/08 02:14:53;;;;;;;;;;;;;;;21.40;23.00;97897.84;5059978;28;892;-75
2021/03/08 02:17:22;;;;;;;;;;;;;;;21.82;22.28;97895.84;5060182;28;710;-74
2021/03/08 02:19:53;;;;;;;;;;;;;;;22.33;21.85;97904.47;5058505;28;1902;-76
2021/03/08 02:22:37;;;;;;;;;;;;;;;22.38;21.81;97890.94;5060195;28;634;-75
2021/03/08 02:25:08;;;;;;;;;;;;;;;22.42;21.95;97900.13;5042930;28;714;-76
2021/03/08 02:27:52;;;;;;;;;;;;;;;22.57;21.36;97893.56;5059821;28;1044;-75
2021/03/08 02:30:30;;;;;;;;;;;;;;;21.82;22.12;97884.50;5059479;28;936;-75
2021/03/08 02:32:56;;;;;;;;;;;;;;;21.84;22.36;97890.50;5059917;28;683;-75
2021/03/08 02:35:25;;;;;;;;;;;;;;;21.57;22.81;97884.44;5059457;28;685;-75
2021/03/08 02:37:59;;;;;;;;;;;;;;;21.99;22.22;97881.59;5059977;28;678;-75
2021/03/08 02:40:29;;;;;;;;;;;;;;;22.24;21.76;97886.53;5043342;28;1960;-75
2021/03/08 02:42:55;;;;;;;;;;;;;;;22.31;21.80;97880.63;5059463;28;784;-75
2021/03/08 02:45:21;;;;;;;;;;;;;;;22.50;21.75;97878.81;5059729;28;901;-75
2021/03/08 02:47:47;;;;;;;;;;;;;;;22.48;21.68;97878.47;5059898;28;1021;-75
2021/03/08 02:50:13;;;;;;;;;;;;;;;22.55;21.48;97878.25;5059739;28;737;-75
2021/03/08 02:52:39;;;;;;;;;;;;;;;21.71;22.45;97878.38;5059487;28;694;-75
2021/03/08 02:55:05;;;;;;;;;;;;;;;21.74;22.45;97877.44;5042937;28;689;-75
2021/03/08 02:57:33;;;;;;;;;;;;;;;21.82;22.38;97876.00;5059644;28;932;-75
2021/03/08 02:59:58;;;;;;;;;;;;;;;22.13;21.93;97875.53;5059127;28;1905;-75
2021/03/08 03:02:24;;;;;;;;;;;;;;;22.42;21.75;97880.28;5059325;28;882;-75
2021/03/08 03:04:49;;;;;;;;;;;;;;;22.52;21.33;97874.28;5059975;28;662;-76
2021/03/08 03:07:15;;;;;;;;;;;;;;;22.69;21.31;97889.16;5042771;28;665;-75
2021/03/08 03:09:41;;;;;;;;;;;;;;;22.80;20.96;97869.72;5059467;28;898;-75
2021/03/08 03:12:07;;;;;;;;;;;;;;;22.72;20.99;97873.25;5058715;28;1010;-75
2021/03/08 03:14:32;;;;;;;;;;;;;;;21.96;21.89;97876.81;5059254;28;855;-75
2021/03/08 03:17:04;;;;;;;;;;;;;;;21.88;22.28;97875.47;5042363;28;1081;-75
2021/03/08 03:19:30;;;;;;;;;;;;;;;21.88;22.36;97879.09;5059455;28;1938;-76
2021/03/08 03:21:58;;;;;;;;;;;;;;;22.24;21.78;97870.31;5059938;28;681;-75
2021/03/08 03:24:24;;;;;;;;;;;;;;;22.43;21.40;97876.19;5059451;28;670;-75
2021/03/08 03:26:50;;;;;;;;;;;;;;;22.41;21.60;97884.38;5059316;28;929;-75
2021/03/08 03:29:15;;;;;;;;;;;;;;;22.56;21.42;97885.50;5059199;28;852;-75
2021/03/08 03:31:41;;;;;;;;;;;;;;;22.81;20.93;97874.16;5061757;28;941;-75
2021/03/08 03:34:06;;;;;;;;;;;;;;;22.17;21.73;97884.69;5046123;28;658;-75
2021/03/08 03:36:32;;;;;;;;;;;;;;;21.73;22.19;97881.53;5062983;28;702;-75
2021/03/08 03:38:58;;;;;;;;;;;;;;;21.93;22.32;97874.91;5063340;28;674;-75
2021/03/08 03:41:23;;;;;;;;;;;;;;;22.24;21.97;97875.19;5061877;28;1961;-75
2021/03/08 03:43:49;;;;;;;;;;;;;;;22.41;21.64;97873.03;5063068;28;932;-76
2021/03/08 03:46:14;;;;;;;;;;;;;;;22.45;21.54;97873.72;5062978;28;1000;-75
2021/03/08 03:48:40;;;;;;;;;;;;;;;22.46;21.50;97875.31;5063103;28;644;-75
2021/03/08 03:51:05;;;;;;;;;;;;;;;22.65;21.16;97864.97;5063195;28;658;-75
2021/03/08 03:53:30;;;;;;;;;;;;;;;22.10;21.92;97868.72;5062716;28;686;-76
2021/03/08 03:55:56;;;;;;;;;;;;;;;21.51;22.79;97863.59;5062908;28;959;-75
2021/03/08 03:58:24;;;;;;;;;;;;;;;21.63;22.79;97865.66;5062505;28;1041;-75
2021/03/08 04:00:59;;;;;;;;;;;;;;;22.21;21.88;97871.22;5062443;28;1983;-76
2021/03/08 04:03:26;;;;;;;;;;;;;;;22.42;21.73;97868.94;5062482;28;721;-75
2021/03/08 04:05:52;;;;;;;;;;;;;;;22.62;21.17;97878.03;5062901;28;622;-75
2021/03/08 04:08:33;;;;;;;;;;;;;;;22.53;21.74;97875.06;5062958;28;737;-75
2021/03/08 04:11:01;;;;;;;;;;;;;;;22.71;21.05;97869.63;5062420;28;925;-75
2021/03/08 04:13:30;;;;;;;;;;;;;;;21.93;22.32;97872.06;5062171;28;803;-75
2021/03/08 04:15:55;;;;;;;;;;;;;;;21.66;22.53;97880.94;5062432;28;674;-76
2021/03/08 04:18:21;;;;;;;;;;;;;;;22.05;22.17;97871.28;5061595;28;827;-75
2021/03/08 04:20:47;;;;;;;;;;;;;;;22.39;21.60;97882.00;5062224;28;1902;-75
2021/03/08 04:23:12;;;;;;;;;;;;;;;22.49;21.48;97880.09;5061928;28;714;-75
2021/03/08 04:25:39;;;;;;;;;;;;;;;22.40;21.58;97883.59;5061847;28;832;-75
2021/03/08 04:28:04;;;;;;;;;;;;;;;22.57;21.65;97878.59;5061852;28;918;-75
2021/03/08 04:30:30;;;;;;;;;;;;;;;22.54;21.17;97873.84;5062086;28;983;-75
2021/03/08 04:32:55;;;;;;;;;;;;;;;21.93;22.32;97872.06;5062308;28;694;-75
2021/03/08 04:35:22;;;;;;;;;;;;;;;21.73;22.49;97864.53;5062018;28;659;-75
2021/03/08 04:38:02;;;;;;;;;;;;;;;21.88;22.59;97866.97;5062400;28;653;-75
2021/03/08 04:40:31;;;;;;;;;;;;;;;22.14;21.98;97865.78;5060959;28;1964;-75
2021/03/08 04:42:56;;;;;;;;;;;;;;;22.51;21.46;97867.03;5059989;28;879;-75
2021/03/08 04:45:22;;;;;;;;;;;;;;;22.65;21.42;97862.94;5061445;28;749;-75
2021/03/08 04:47:47;;;;;;;;;;;;;;;22.40;21.73;97865.78;5061132;28;614;-75
2021/03/08 04:50:13;;;;;;;;;;;;;;;22.02;22.35;97863.66;5061305;28;877;-75
2021/03/08 04:52:39;;;;;;;;;;;;;;;21.72;22.55;97862.16;5061692;28;654;-75
2021/03/08 04:55:07;;;;;;;;;;;;;;;22.12;22.41;97858.97;5060952;28;1506;-75
2021/03/08 04:57:33;;;;;;;;;;;;;;;22.29;21.68;97860.47;5077452;28;1635;-75
2021/03/08 04:59:58;;;;;;;;;;;;;;;22.48;21.76;97864.28;5050000;28;1902;-76
2021/03/08 05:02:24;;;;;;;;;;;;;;;22.55;21.68;97866.91;5041617;28;631;-75
2021/03/08 05:04:50;;;;;;;;;;;;;;;22.35;21.62;97864.31;5041686;28;702;-75
2021/03/08 05:07:17;;;;;;;;;;;;;;;21.70;22.64;97865.44;5057468;28;685;-75
2021/03/08 05:09:43;;;;;;;;;;;;;;;21.66;22.83;97859.09;5040835;28;1110;-75
2021/03/08 05:12:09;;;;;;;;;;;;;;;22.25;21.86;97859.78;5056880;28;1609;-75
2021/03/08 05:14:34;;;;;;;;;;;;;;;22.41;21.76;97861.69;5041060;28;1605;-76
2021/03/08 05:17:00;;;;;;;;;;;;;;;22.47;21.61;97868.38;5057508;28;657;-74
2021/03/08 05:19:25;;;;;;;;;;;;;;;22.62;21.59;97866.66;5057518;28;1910;-75
2021/03/08 05:21:51;;;;;;;;;;;;;;;22.53;21.82;97869.41;5057252;28;674;-75
2021/03/08 05:24:17;;;;;;;;;;;;;;;22.34;21.71;97874.84;5056915;28;922;-75
2021/03/08 05:26:42;;;;;;;;;;;;;;;21.91;22.31;97869.66;5041121;28;798;-75
2021/03/08 05:29:07;;;;;;;;;;;;;;;21.69;22.49;97869.50;5041439;28;987;-75
2021/03/08 05:31:34;;;;;;;;;;;;;;;22.10;22.58;97870.72;5041018;28;663;-75
2021/03/08 05:34:05;;;;;;;;;;;;;;;22.51;21.66;97869.06;5041010;28;745;-75
2021/03/08 05:36:32;;;;;;;;;;;;;;;22.58;21.64;97877.34;5056864;28;674;-75
2021/03/08 05:38:57;;;;;;;;;;;;;;;22.66;21.38;97875.88;5040606;28;949;-75
2021/03/08 05:41:26;;;;;;;;;;;;;;;22.16;22.00;97868.94;5056436;28;1959;-75
2021/03/08 05:43:52;;;;;;;;;;;;;;;21.54;22.89;97874.00;5040434;28;1582;-76
2021/03/08 05:46:36;;;;;;;;;;;;;;;21.84;22.42;97867.84;5056771;28;1592;-75
2021/03/08 05:49:20;;;;;;;;;;;;;;;22.39;22.03;97875.53;5040702;28;706;-76
2021/03/08 05:52:04;;;;;;;;;;;;;;;22.50;21.54;97870.31;5040268;28;1578;-76
2021/03/08 05:54:45;;;;;;;;;;;;;;;22.41;21.90;97873.03;5039823;28;1574;-76
2021/03/08 05:57:15;;;;;;;;;;;;;;;21.85;22.27;97877.94;5056259;28;886;-75
2021/03/08 05:59:41;;;;;;;;;;;;;;;21.52;23.11;97873.66;5064829;28;1894;-75
2021/03/08 06:02:45;;;;;;;;;;;;;;;22.10;22.48;97874.38;5060386;28;603;-75
2021/03/08 06:05:25;;;;;;;;;;;;;;;22.46;21.92;97876.09;5018993;28;1638;-75
2021/03/08 06:07:57;;;;;;;;;;;;;;;22.68;21.43;97876.19;5019374;28;715;-75
2021/03/08 06:10:36;;;;;;;;;;;;;;;22.63;21.44;97877.56;5046630;28;893;-75
2021/03/08 06:13:05;;;;;;;;;;;;;;;22.38;21.59;97879.59;5057191;28;1636;-73
2021/03/08 06:15:30;;;;;;;;;;;;;;;22.06;22.05;97881.38;5059986;28;1699;-75
2021/03/08 06:17:56;;;;;;;;;;;;;;;21.61;22.94;97884.34;5076285;28;669;-75
2021/03/08 06:20:21;;;;;;;;;;;;;;;21.75;22.89;97884.69;5060056;28;1971;-75
2021/03/08 06:22:47;;;;;;;;;;;;;;;22.30;22.14;97884.72;5076073;28;655;-75
2021/03/08 06:25:13;;;;;;;;;;;;;;;22.52;21.67;97890.50;5075833;28;884;-76
2021/03/08 06:27:40;;;;;;;;;;;;;;;22.71;21.59;97880.97;5060125;28;849;-75
2021/03/08 06:30:06;;;;;;;;;;;;;;;22.47;21.80;97889.03;5059920;28;1076;-75
2021/03/08 06:32:31;;;;;;;;;;;;;;;21.87;22.40;97890.88;5060018;28;1769;-75
2021/03/08 06:34:57;;;;;;;;;;;;;;;21.63;22.84;97887.50;5060307;28;634;-75
2021/03/08 06:37:23;;;;;;;;;;;;;;;22.00;22.33;97880.34;5075955;28;678;-75
2021/03/08 06:39:48;;;;;;;;;;;;;;;22.36;22.13;97882.91;5075886;28;1890;-76
2021/03/08 06:42:14;;;;;;;;;;;;;;;22.44;21.81;97880.66;5059619;28;822;-75
2021/03/08 06:44:40;;;;;;;;;;;;;;;22.65;21.56;97876.31;5059859;28;1000;-75
2021/03/08 06:47:05;;;;;;;;;;;;;;;22.78;21.34;97877.09;5059951;28;663;-75
2021/03/08 06:49:31;;;;;;;;;;;;;;;22.07;22.15;97871.63;5059437;28;2067;-75
2021/03/08 06:52:10;;;;;;;;;;;;;;;21.68;22.71;97879.25;5047171;28;1720;-76
2021/03/08 06:54:39;;;;;;;;;;;;;;;22.04;22.60;97866.88;5075459;28;883;-75
2021/03/08 06:57:24;;;;;;;;;;;;;;;22.36;22.14;97875.19;5058699;28;1680;-75
2021/03/08 06:59:55;;;;;;;;;;;;;;;22.56;21.92;97879.84;5049954;28;1967;-75
2021/03/08 07:02:22;;;;;;;;;;;;;;;22.58;21.51;97874.50;5059683;28;694;-75
2021/03/08 07:04:47;;;;;;;;;;;;;;;22.38;21.66;97868.25;5058446;28;1631;-76
2021/03/08 07:07:13;;;;;;;;;;;;;;;21.70;22.63;97871.09;5062927;28;1593;-75
2021/03/08 07:09:51;;;;;;;;;;;;;;;21.67;22.90;97871.22;5078649;28;1576;-75
2021/03/08 07:12:17;;;;;;;;;;;;;;;22.25;22.20;97860.56;5063330;28;934;-75
2021/03/08 07:14:43;;;;;;;;;;;;;;;22.62;21.60;97863.84;5063170;28;1628;-75
2021/03/08 07:17:27;;;;;;;;;;;;;;;22.70;21.48;97861.56;5063491;28;1640;-76
2021/03/08 07:19:53;;;;;;;;;;;;;;;22.49;21.93;97875.19;5063339;28;2000;-75
2021/03/08 07:22:35;;;;;;;;;;;;;;;22.27;22.01;97877.91;5063538;28;658;-75
2021/03/08 07:25:00;;;;;;;;;;;;;;;21.88;22.40;97864.13;5062518;28;1621;-75
2021/03/08 07:27:38;;;;;;;;;;;;;;;21.68;22.93;97867.13;5078923;28;1597;-75
2021/03/08 07:30:04;;;;;;;;;;;;;;;22.05;22.47;97865.63;5063392;28;587;-76
2021/03/08 07:32:30;;;;;;;;;;;;;;;22.35;22.05;97864.31;5063226;28;626;-76
2021/03/08 07:34:55;;;;;;;;;;;;;;;22.69;21.37;97863.63;5061283;28;1684;-75
2021/03/08 07:37:20;;;;;;;;;;;;;;;22.59;21.48;97862.72;5052868;28;1652;-75
2021/03/08 07:39:52;;;;;;;;;;;;;;;21.96;22.17;97862.66;5078448;28;1974;-75
2021/03/08 07:42:18;;;;;;;;;;;;;;;21.84;22.45;97859.34;5062581;28;1710;-75
2021/03/08 07:44:51;;;;;;;;;;;;;;;21.73;22.65;97858.88;5062921;28;1025;-75
2021/03/08 07:47:20;;;;;;;;;;;;;;;22.28;21.84;97856.84;5078356;28;777;-75
2021/03/08 07:49:45;;;;;;;;;;;;;;;22.47;21.71;97857.03;5062826;28;671;-75
2021/03/08 07:52:11;;;;;;;;;;;;;;;22.51;21.60;97854.91;5062918;28;662;-75
2021/03/08 07:54:52;;;;;;;;;;;;;;;22.50;21.83;97864.66;5062332;28;1674;-74
2021/03/08 07:57:19;;;;;;;;;;;;;;;22.28;21.67;97865.34;5061885;28;871;-73
2021/03/08 07:59:44;;;;;;;;;;;;;;;21.82;22.73;97850.53;5062538;28;1972;-75
2021/03/08 08:02:10;;;;;;;;;;;;;;;21.77;22.57;97864.44;5062739;28;1574;-75
2021/03/08 08:04:35;;;;;;;;;;;;;;;21.88;22.61;97858.47;5078604;28;985;-75
2021/03/08 08:07:05;;;;;;;;;;;;;;;22.32;22.12;97866.00;5062719;28;792;-75
2021/03/08 08:09:30;;;;;;;;;;;;;;;22.55;21.66;97866.91;5062380;28;903;-76
2021/03/08 08:11:56;;;;;;;;;;;;;;;22.54;21.43;97854.00;5077843;28;1682;-75
2021/03/08 08:14:21;;;;;;;;;;;;;;;22.56;21.88;97857.94;5078374;28;953;-75
2021/03/08 08:16:47;;;;;;;;;;;;;;;22.72;21.31;97854.19;5078348;28;1225;-75
2021/03/08 08:19:12;;;;;;;;;;;;;;;22.00;22.20;97861.31;5077891;28;1977;-75
2021/03/08 08:21:38;;;;;;;;;;;;;;;21.56;23.01;97865.88;5078373;28;1644;-75
2021/03/08 08:24:05;;;;;;;;;;;;;;;21.88;22.72;97861.28;5047594;28;1506;-75
2021/03/08 08:26:30;;;;;;;;;;;;;;;22.22;22.17;97860.66;5061941;28;860;-75
2021/03/08 08:28:56;;;;;;;;;;;;;;;22.47;21.87;97855.00;5062216;28;975;-75
2021/03/08 08:31:21;;;;;;;;;;;;;;;22.57;21.32;97850.22;5078271;28;637;-75
2021/03/08 08:33:47;;;;;;;;;;;;;;;22.71;21.36;97851.81;5054634;28;1629;-76
2021/03/08 08:36:16;;;;;;;;;;;;;;;22.74;21.35;97845.22;5056519;28;1648;-74
2021/03/08 08:38:52;;;;;;;;;;;;;;;22.02;22.21;97846.69;5061494;28;1723;-75
2021/03/08 08:41:26;;;;;;;;;;;;;;;21.73;22.48;97844.72;5074682;28;1910;-75
2021/03/08 08:44:07;;;;;;;;;;;;;;;21.55;22.94;97841.59;5062021;28;661;-75
2021/03/08 08:46:33;;;;;;;;;;;;;;;22.01;22.17;97842.25;5061635;28;1557;-75
2021/03/08 08:49:02;;;;;;;;;;;;;;;22.22;22.01;97833.13;5061971;28;627;-76
2021/03/08 08:51:48;;;;;;;;;;;;;;;22.50;21.58;97824.97;5061380;28;1738;-76
2021/03/08 08:54:26;;;;;;;;;;;;;;;22.84;21.17;97822.16;5061181;28;1101;-75
2021/03/08 08:56:51;;;;;;;;;;;;;;;22.09;22.01;97827.44;5061736;28;903;-75
2021/03/08 08:59:20;;;;;;;;;;;;;;;21.86;22.21;97827.72;5061459;28;1902;-75
2021/03/08 09:01:45;;;;;;;;;;;;;;;22.01;22.13;97822.44;5061265;28;1629;-75
2021/03/08 09:04:12;;;;;;;;;;;;;;;22.33;21.78;97808.09;5061533;28;635;-75
2021/03/08 09:06:41;;;;;;;;;;;;;;;22.50;21.69;97824.97;5061979;28;642;-75
2021/03/08 09:09:13;;;;;;;;;;;;;;;22.65;21.47;97809.06;5061085;28;966;-75
2021/03/08 09:11:46;;;;;;;;;;;;;;;22.63;21.24;97822.88;5061056;28;890;-75
2021/03/08 09:14:20;;;;;;;;;;;;;;;22.24;21.85;97822.13;5060579;28;1617;-75
2021/03/08 09:16:46;;;;;;;;;;;;;;;21.86;22.09;97822.06;5061113;28;1601;-75
2021/03/08 09:19:21;;;;;;;;;;;;;;;21.53;22.85;97815.78;5061545;28;582;-75
2021/03/08 09:21:46;;;;;;;;;;;;;;;22.00;22.40;97809.50;5061164;28;623;-75
2021/03/08 09:24:31;;;;;;;;;;;;;;;22.33;21.94;97810.91;5076878;28;1584;-75
2021/03/08 09:26:57;;;;;;;;;;;;;;;22.48;21.69;97810.44;5040850;28;901;-75
2021/03/08 09:29:22;;;;;;;;;;;;;;;22.58;21.58;97815.75;5040579;28;694;-75
2021/03/08 09:31:48;;;;;;;;;;;;;;;22.45;21.44;97811.34;5041138;28;611;-75
2021/03/08 09:34:13;;;;;;;;;;;;;;;22.04;22.27;97810.19;5053371;28;1589;-75
2021/03/08 09:36:39;;;;;;;;;;;;;;;21.71;22.86;97804.75;5061263;28;618;-76
2021/03/08 09:39:10;;;;;;;;;;;;;;;21.72;22.64;97800.66;5060754;28;909;-75
2021/03/08 09:41:42;;;;;;;;;;;;;;;22.16;22.18;97794.47;5060457;28;957;-75
2021/03/08 09:44:07;;;;;;;;;;;;;;;22.34;21.86;97789.81;5060400;28;1574;-75
2021/03/08 09:46:33;;;;;;;;;;;;;;;22.68;21.10;97791.09;5060820;28;598;-75
2021/03/08 09:49:04;;;;;;;;;;;;;;;22.77;21.27;97791.19;5060591;28;607;-76
2021/03/08 09:51:29;;;;;;;;;;;;;;;22.07;21.98;97793.09;5060711;28;712;-76
2021/03/08 09:53:55;;;;;;;;;;;;;;;21.68;22.65;97787.84;5060062;28;1558;-76
2021/03/08 09:56:22;;;;;;;;;;;;;;;21.69;22.34;97790.22;5060087;28;898;-75
2021/03/08 09:58:57;;;;;;;;;;;;;;;21.93;22.14;97798.41;5060375;28;974;-76
2021/03/08 10:01:23;;;;;;;;;;;;;;;22.40;21.57;97794.91;5060727;28;1914;-75
2021/03/08 10:03:48;;;;;;;;;;;;;;;22.40;21.38;97786.41;5060762;28;611;-75
2021/03/08 10:06:24;;;;;;;;;;;;;;;22.30;21.73;97791.19;5060521;28;1648;-75
2021/03/08 10:09:23;;;;;;;;;;;;;;;21.99;22.33;97796.59;5060050;28;928;-76
2021/03/08 10:11:58;;;;;;;;;;;;;;;21.74;22.57;97798.16;5059966;28;870;-75
2021/03/08 10:14:24;;;;;;;;;;;;;;;22.12;22.00;97783.25;5060502;28;825;-75
2021/03/08 10:16:50;;;;;;;;;;;;;;;22.50;21.70;97782.44;5075330;28;1647;-75
2021/03/08 10:19:20;;;;;;;;;;;;;;;22.67;21.20;97775.34;5060273;28;840;-75
2021/03/08 10:21:46;;;;;;;;;;;;;;;22.16;21.67;97772.59;5060554;28;644;-75
2021/03/08 10:24:12;;;;;;;;;;;;;;;21.93;22.12;97768.03;5059886;28;1069;-75
2021/03/08 10:26:43;;;;;;;;;;;;;;;21.82;22.38;97776.09;5059711;28;1589;-76
2021/03/08 10:29:08;;;;;;;;;;;;;;;21.94;21.99;97766.78;5075926;28;1568;-75
2021/03/08 10:31:33;;;;;;;;;;;;;;;21.69;22.07;97764.72;5060459;28;586;-76
2021/03/08 10:33:59;;;;;;;;;;;;;;;21.81;22.38;97763.97;5076601;28;631;-75
2021/03/08 10:36:25;;;;;;;;;;;;;;;21.75;22.13;97765.75;5075832;28;1596;-75
2021/03/08 10:39:13;;;;;;;;;;;;;;;21.64;22.46;97765.28;5079877;28;1620;-75
2021/03/08 10:41:49;;;;;;;;;;;;;;;21.98;21.92;97763.84;5038982;28;925;-75
2021/03/08 10:44:18;;;;;;;;;;;;;;;22.42;21.20;97753.50;5056095;28;669;-75
2021/03/08 10:46:44;;;;;;;;;;;;;;;22.57;21.20;97745.31;5040132;28;643;-75
2021/03/08 10:49:09;;;;;;;;;;;;;;;22.58;21.15;97744.06;5051296;28;1589;-75
2021/03/08 10:51:36;;;;;;;;;;;;;;;22.26;21.33;97748.78;5059959;28;646;-75
2021/03/08 10:54:02;;;;;;;;;;;;;;;21.87;21.87;97737.91;5059912;28;880;-76
2021/03/08 10:56:28;;;;;;;;;;;;;;;21.75;21.65;97737.44;5059908;28;876;-75
2021/03/08 10:58:54;;;;;;;;;;;;;;;22.07;21.68;97729.94;5075308;28;1639;-75
2021/03/08 11:01:19;;;;;;;;;;;;;;;22.40;21.23;97724.03;5058953;28;1980;-76
2021/03/08 11:03:45;;;;;;;;;;;;;;;22.64;21.07;97713.88;5059838;28;571;-76
2021/03/08 11:06:11;;;;;;;;;;;;;;;22.73;20.70;97708.28;5059398;28;1621;-76
2021/03/08 11:08:38;;;;;;;;;;;;;;;21.58;22.10;97716.16;5059744;28;861;-76
2021/03/08 11:11:14;;;;;;;;;;;;;;;21.82;21.78;97703.25;5059506;28;892;-75
2021/03/08 11:13:39;;;;;;;;;;;;;;;21.49;22.22;97713.19;5059565;28;1069;-75
2021/03/08 11:16:08;;;;;;;;;;;;;;;21.71;22.04;97696.31;5059503;28;1621;-75
2021/03/08 11:18:34;;;;;;;;;;;;;;;22.15;21.38;97696.53;5059895;28;645;-75
2021/03/08 11:21:18;;;;;;;;;;;;;;;22.41;21.17;97691.59;5059762;28;2002;-75
2021/03/08 11:23:44;;;;;;;;;;;;;;;22.55;21.21;97685.44;5074883;28;949;-75
2021/03/08 11:26:09;;;;;;;;;;;;;;;22.12;21.31;97686.09;5059489;28;925;-75
2021/03/08 11:28:41;;;;;;;;;;;;;;;21.92;21.83;97678.66;5058989;28;1667;-75
2021/03/08 11:31:17;;;;;;;;;;;;;;;21.85;21.62;97679.66;5059675;28;630;-75
2021/03/08 11:33:43;;;;;;;;;;;;;;;21.83;21.67;97676.50;5059346;28;653;-75
2021/03/08 11:36:08;;;;;;;;;;;;;;;22.14;21.65;97678.75;5075001;28;1587;-76
2021/03/08 11:38:34;;;;;;;;;;;;;;;22.41;21.07;97680.28;5059054;28;1116;-76
2021/03/08 11:40:59;;;;;;;;;;;;;;;22.59;20.82;97660.59;5059036;28;1971;-75
2021/03/08 11:43:25;;;;;;;;;;;;;;;22.23;21.18;97659.00;5041356;28;943;-75
2021/03/08 11:45:51;;;;;;;;;;;;;;;22.14;21.36;97650.41;5059007;28;1676;-76
2021/03/08 11:48:19;;;;;;;;;;;;;;;21.80;21.70;97649.06;5058984;28;1640;-75
2021/03/08 11:50:45;;;;;;;;;;;;;;;22.04;21.39;97651.53;5075406;28;646;-76
2021/03/08 11:53:10;;;;;;;;;;;;;;;22.53;20.80;97648.22;5062170;28;858;-76
2021/03/08 11:55:37;;;;;;;;;;;;;;;22.61;20.67;97643.91;5062598;28;946;-75
2021/03/08 11:58:03;;;;;;;;;;;;;;;22.22;21.32;97640.41;5078182;28;1631;-75
2021/03/08 12:00:28;;;;;;;;;;;;;;;21.88;21.78;97637.53;5062678;28;1993;-75
2021/03/08 12:02:54;;;;;;;;;;;;;;;21.78;21.53;97639.47;5062952;28;670;-75
2021/03/08 12:05:19;;;;;;;;;;;;;;;21.73;21.70;97643.66;5063029;28;677;-76
2021/03/08 12:07:48;;;;;;;;;;;;;;;22.11;21.41;97637.16;5062488;28;1043;-76
2021/03/08 12:10:13;;;;;;;;;;;;;;;22.39;21.08;97645.94;5062307;28;1672;-75
2021/03/08 12:12:39;;;;;;;;;;;;;;;22.52;20.78;97687.13;5078444;28;832;-75
2021/03/08 12:15:05;;;;;;;;;;;;;;;22.41;20.91;97641.38;5062949;28;709;-75
2021/03/08 12:17:31;;;;;;;;;;;;;;;21.90;21.53;97652.00;5062746;28;661;-75
2021/03/08 12:19:56;;;;;;;;;;;;;;;21.86;21.61;97640.78;5061729;28;1988;-75
2021/03/08 12:22:22;;;;;;;;;;;;;;;21.72;21.79;97642.06;5062232;28;950;-75
2021/03/08 12:24:47;;;;;;;;;;;;;;;21.48;21.91;97638.00;5062099;28;957;-76
2021/03/08 12:27:13;;;;;;;;;;;;;;;22.05;21.68;97625.56;5062155;28;922;-76
2021/03/08 12:29:38;;;;;;;;;;;;;;;22.31;21.09;97626.31;5062120;28;1605;-76
2021/03/08 12:32:04;;;;;;;;;;;;;;;22.59;20.92;97620.91;5061966;28;1577;-75
2021/03/08 12:34:30;;;;;;;;;;;;;;;22.17;20.96;97621.16;5062083;28;622;-75
2021/03/08 12:36:55;;;;;;;;;;;;;;;21.74;21.71;97608.41;5062057;28;834;-75
2021/03/08 12:39:48;;;;;;;;;;;;;;;21.75;21.42;97618.50;5062082;28;1906;-75
2021/03/08 12:42:13;;;;;;;;;;;;;;;22.00;21.49;97608.38;5061926;28;1739;-75
2021/03/08 12:44:39;;;;;;;;;;;;;;;22.31;20.76;97609.31;5062095;28;710;-75
2021/03/08 12:47:04;;;;;;;;;;;;;;;22.54;20.51;97607.31;5062172;28;677;-75
2021/03/08 12:49:30;;;;;;;;;;;;;;;22.43;20.63;97612.56;5062385;28;590;-75
2021/03/08 12:51:55;;;;;;;;;;;;;;;21.99;21.40;97603.97;5061335;28;1636;-75
2021/03/08 12:54:21;;;;;;;;;;;;;;;21.62;21.93;97608.44;5061583;28;938;-75
2021/03/08 12:56:46;;;;;;;;;;;;;;;21.66;21.58;97607.09;5061713;28;908;-75
2021/03/08 12:59:12;;;;;;;;;;;;;;;22.19;21.24;97596.00;5056879;28;994;-76
2021/03/08 13:01:37;;;;;;;;;;;;;;;22.57;20.55;97592.19;5041296;28;1982;-75
2021/03/08 13:04:03;;;;;;;;;;;;;;;22.76;20.55;97593.91;5041127;28;650;-75
2021/03/08 13:06:28;;;;;;;;;;;;;;;22.17;21.00;97594.84;5041730;28;906;-75